createdAt,value
2023-01-30T00:01:38.545Z,36.83
2023-01-30T00:04:05.132Z,29.27
2023-01-30T00:06:31.646Z,32.22
2023-01-30T00:08:58.474Z,26.50
2023-01-30T00:11:25.340Z,31.75
2023-01-30T00:13:51.924Z,32.60
2023-01-30T00:16:18.676Z,28.83
2023-01-30T00:18:45.517Z,29.42
2023-01-30T00:21:14.489Z,29.33
2023-01-30T00:23:41.268Z,30.20
2023-01-30T00:26:08.344Z,31.05
2023-01-30T00:28:34.995Z,28.75
2023-01-30T00:31:01.677Z,23.75
2023-01-30T00:33:28.797Z,31.95
2023-01-30T00:35:56.860Z,28.73
2023-01-30T00:38:24.639Z,27.48
2023-01-30T00:40:51.200Z,28.08
2023-01-30T00:43:37.810Z,35.30
2023-01-30T00:46:29.656Z,21.20
2023-01-30T00:48:56.193Z,24.50
2023-01-30T00:51:22.881Z,20.00
2023-01-30T00:53:49.428Z,24.10
2023-01-30T00:56:15.954Z,19.75
2023-01-30T00:58:42.397Z,23.52
2023-01-30T01:01:08.911Z,20.83
2023-01-30T01:03:35.499Z,19.83
2023-01-30T01:06:01.903Z,22.83
2023-01-30T01:08:28.564Z,17.63
2023-01-30T01:10:55.099Z,19.83
2023-01-30T01:13:21.744Z,27.73
2023-01-30T01:15:49.651Z,27.40
2023-01-30T01:18:16.090Z,23.13
2023-01-30T01:20:42.680Z,21.70
2023-01-30T01:23:10.822Z,20.10
2023-01-30T01:25:37.309Z,20.13
2023-01-30T01:28:04.092Z,19.83
2023-01-30T01:30:30.741Z,21.25
2023-01-30T01:32:57.594Z,19.63
2023-01-30T01:35:24.114Z,21.38
2023-01-30T01:37:54.736Z,27.50
2023-01-30T01:40:41.340Z,17.75
2023-01-30T01:43:23.505Z,18.65
2023-01-30T01:45:55.161Z,17.63
2023-01-30T01:48:32.856Z,18.38
2023-01-30T01:51:04.928Z,16.52
2023-01-30T01:53:39.013Z,24.27
2023-01-30T01:56:06.425Z,22.35
2023-01-30T01:58:41.630Z,18.10
2023-01-30T02:01:08.213Z,18.02
2023-01-30T02:03:38.349Z,20.40
2023-01-30T02:06:05.724Z,20.27
2023-01-30T02:08:37.396Z,20.20
2023-01-30T02:11:22.256Z,18.80
2023-01-30T02:13:50.814Z,19.58
2023-01-30T02:16:18.017Z,18.15
2023-01-30T02:18:46.819Z,15.50
2023-01-30T02:21:44.178Z,19.77
2023-01-30T02:24:29.901Z,19.25
2023-01-30T02:27:15.342Z,15.57
2023-01-30T02:30:09.983Z,12.35
2023-01-30T02:33:04.205Z,11.77
2023-01-30T02:35:42.146Z,16.70
2023-01-30T02:38:49.331Z,15.07
2023-01-30T02:41:30.646Z,13.95
2023-01-30T02:44:00.232Z,14.73
2023-01-30T02:46:38.594Z,15.23
2023-01-30T02:49:17.880Z,17.13
2023-01-30T02:51:47.355Z,17.23
2023-01-30T02:54:15.134Z,18.90
2023-01-30T02:56:50.056Z,17.58
2023-01-30T02:59:25.798Z,13.90
2023-01-30T03:02:22.853Z,11.82
2023-01-30T03:04:58.623Z,16.58
2023-01-30T03:07:28.033Z,16.70
2023-01-30T03:09:57.461Z,11.63
2023-01-30T03:12:53.271Z,19.98
2023-01-30T03:15:19.966Z,16.80
2023-01-30T03:17:48.050Z,12.88
2023-01-30T03:20:16.652Z,12.55
2023-01-30T03:22:43.156Z,13.10
2023-01-30T03:25:12.996Z,10.75
2023-01-30T03:27:41.210Z,12.55
2023-01-30T03:30:08.511Z,13.63
2023-01-30T03:32:35.240Z,13.48
2023-01-30T03:35:01.770Z,14.80
2023-01-30T03:37:28.503Z,13.02
2023-01-30T03:39:55.109Z,13.27
2023-01-30T03:42:21.942Z,10.88
2023-01-30T03:44:48.516Z,17.10
2023-01-30T03:47:15.038Z,12.05
2023-01-30T03:49:41.541Z,12.48
2023-01-30T03:52:09.135Z,14.77
2023-01-30T03:54:35.646Z,13.38
2023-01-30T03:57:02.170Z,15.00
2023-01-30T03:59:28.668Z,18.52
2023-01-30T04:01:55.301Z,9.07
2023-01-30T04:04:22.905Z,14.80
2023-01-30T04:06:49.458Z,9.95
2023-01-30T04:09:16.143Z,13.30
2023-01-30T04:11:42.650Z,13.32
2023-01-30T04:14:09.152Z,13.65
2023-01-30T04:16:35.735Z,17.02
2023-01-30T04:19:02.295Z,15.75
2023-01-30T04:21:28.854Z,9.25
2023-01-30T04:23:55.267Z,7.15
2023-01-30T04:26:21.873Z,14.88
2023-01-30T04:28:48.475Z,12.40
2023-01-30T04:31:15.217Z,10.90
2023-01-30T04:33:42.058Z,11.13
2023-01-30T04:36:09.685Z,10.23
2023-01-30T04:38:36.860Z,9.90
2023-01-30T04:41:04.192Z,13.45
2023-01-30T04:43:31.466Z,11.23
2023-01-30T04:45:58.594Z,13.68
2023-01-30T04:48:25.890Z,17.63
2023-01-30T04:50:54.899Z,12.20
2023-01-30T04:53:22.088Z,13.52
2023-01-30T04:55:48.692Z,12.98
2023-01-30T04:58:16.437Z,10.65
2023-01-30T05:00:42.970Z,13.70
2023-01-30T05:03:09.457Z,16.40
2023-01-30T05:05:36.043Z,8.43
2023-01-30T05:08:02.679Z,13.00
2023-01-30T05:10:29.370Z,10.63
2023-01-30T05:12:55.870Z,11.45
2023-01-30T05:15:22.368Z,13.38
2023-01-30T05:17:48.854Z,9.18
2023-01-30T05:20:15.387Z,9.90
2023-01-30T05:22:41.879Z,8.70
2023-01-30T05:25:08.930Z,10.15
2023-01-30T05:27:35.551Z,10.65
2023-01-30T05:30:02.310Z,9.93
2023-01-30T05:32:31.114Z,9.93
2023-01-30T05:34:57.569Z,7.82
2023-01-30T05:37:24.628Z,8.68
2023-01-30T05:39:51.224Z,8.75
2023-01-30T05:42:18.157Z,8.43
2023-01-30T05:44:44.675Z,10.93
2023-01-30T05:47:11.244Z,4.68
2023-01-30T05:49:37.725Z,7.15
2023-01-30T05:52:04.308Z,5.65
2023-01-30T05:54:30.926Z,11.77
2023-01-30T05:56:57.487Z,11.93
2023-01-30T05:59:24.179Z,9.25
2023-01-30T06:01:50.794Z,6.00
2023-01-30T06:04:17.240Z,9.27
2023-01-30T06:06:43.748Z,9.38
2023-01-30T06:09:11.090Z,14.50
2023-01-30T06:11:37.907Z,9.40
2023-01-30T06:14:04.402Z,11.77
2023-01-30T06:16:31.037Z,12.82
2023-01-30T06:18:57.625Z,12.70
2023-01-30T06:21:24.209Z,8.90
2023-01-30T06:23:50.784Z,14.07
2023-01-30T06:26:17.347Z,15.25
2023-01-30T06:28:44.349Z,15.90
2023-01-30T06:31:11.638Z,6.82
2023-01-30T06:33:38.234Z,10.60
2023-01-30T06:36:04.871Z,12.38
2023-01-30T06:38:31.544Z,17.55
2023-01-30T06:40:58.528Z,13.20
2023-01-30T06:43:25.064Z,11.00
2023-01-30T06:45:51.564Z,12.57
2023-01-30T06:48:18.159Z,14.43
2023-01-30T06:50:47.860Z,10.85
2023-01-30T06:53:14.310Z,9.00
2023-01-30T06:55:40.812Z,10.23
2023-01-30T06:58:10.245Z,10.77
2023-01-30T07:00:40.318Z,13.25
2023-01-30T07:03:11.597Z,10.95
2023-01-30T07:05:40.357Z,14.73
2023-01-30T07:08:07.093Z,10.13
2023-01-30T07:10:35.393Z,11.75
2023-01-30T07:13:02.437Z,10.07
2023-01-30T07:15:29.310Z,12.35
2023-01-30T07:17:55.832Z,11.32
2023-01-30T07:20:22.779Z,16.98
2023-01-30T07:22:54.145Z,12.63
2023-01-30T07:25:21.945Z,17.00
2023-01-30T07:27:59.832Z,18.95
2023-01-30T07:30:28.684Z,15.70
2023-01-30T07:32:57.891Z,14.68
2023-01-30T07:35:25.905Z,13.07
2023-01-30T07:37:52.471Z,13.02
2023-01-30T07:40:20.329Z,18.00
2023-01-30T07:43:01.122Z,15.82
2023-01-30T07:45:34.514Z,13.38
2023-01-30T07:48:01.067Z,15.30
2023-01-30T07:50:27.710Z,11.02
2023-01-30T07:52:54.189Z,17.58
2023-01-30T07:55:20.891Z,14.25
2023-01-30T07:57:47.595Z,15.73
2023-01-30T08:00:15.024Z,13.30
2023-01-30T08:02:41.487Z,12.05
2023-01-30T08:05:08.552Z,11.32
2023-01-30T08:07:35.085Z,15.43
2023-01-30T08:10:01.646Z,13.75
2023-01-30T08:12:29.221Z,14.30
2023-01-30T08:14:56.001Z,12.40
2023-01-30T08:17:23.884Z,10.70
2023-01-30T08:19:50.486Z,10.77
2023-01-30T08:22:17.775Z,13.52
2023-01-30T08:24:44.271Z,19.52
2023-01-30T08:27:10.809Z,21.15
2023-01-30T08:29:37.366Z,13.40
2023-01-30T08:32:04.191Z,13.07
2023-01-30T08:34:30.697Z,12.60
2023-01-30T08:36:57.284Z,16.77
2023-01-30T08:39:23.867Z,9.02
2023-01-30T08:41:50.636Z,12.25
2023-01-30T08:44:17.242Z,12.75
2023-01-30T08:46:43.898Z,12.00
2023-01-30T08:49:11.074Z,17.30
2023-01-30T08:51:38.471Z,8.80
2023-01-30T08:54:07.544Z,12.35
2023-01-30T08:56:34.519Z,12.10
2023-01-30T08:59:01.071Z,15.40
2023-01-30T09:01:27.801Z,16.40
2023-01-30T09:03:54.357Z,11.10
2023-01-30T09:06:20.790Z,8.40
2023-01-30T09:08:47.332Z,14.50
2023-01-30T09:11:13.835Z,14.77
2023-01-30T09:13:43.538Z,16.42
2023-01-30T09:16:12.984Z,19.25
2023-01-30T09:18:41.614Z,12.88
2023-01-30T09:21:09.605Z,15.18
2023-01-30T09:23:36.522Z,13.48
2023-01-30T09:26:04.519Z,12.18
2023-01-30T09:28:31.214Z,10.20
2023-01-30T09:30:59.616Z,10.68
2023-01-30T09:33:26.740Z,14.02
2023-01-30T09:35:53.942Z,10.80
2023-01-30T09:38:21.702Z,11.65
2023-01-30T09:41:00.294Z,15.00
2023-01-30T09:43:26.787Z,13.23
2023-01-30T09:46:12.284Z,12.65
2023-01-30T09:48:42.628Z,16.42
2023-01-30T09:51:27.586Z,10.13
2023-01-30T09:54:12.903Z,13.68
2023-01-30T09:56:39.585Z,12.82
2023-01-30T09:59:06.982Z,11.50
2023-01-30T10:01:56.259Z,16.60
2023-01-30T10:04:42.008Z,11.38
2023-01-30T10:08:06.198Z,12.35
2023-01-30T10:10:55.108Z,8.93
2023-01-30T10:13:33.320Z,12.15
2023-01-30T10:16:35.141Z,15.60
2023-01-30T10:19:35.360Z,10.02
2023-01-30T10:22:09.716Z,9.35
2023-01-30T10:24:54.958Z,8.65
2023-01-30T10:27:26.438Z,13.00
2023-01-30T10:30:00.731Z,17.23
2023-01-30T10:32:42.038Z,11.45
2023-01-30T10:35:23.474Z,10.70
2023-01-30T10:37:58.684Z,12.23
2023-01-30T10:40:28.867Z,12.30
2023-01-30T10:43:22.332Z,8.93
2023-01-30T10:46:01.718Z,17.77
2023-01-30T10:49:00.759Z,15.10
2023-01-30T10:51:55.525Z,17.08
2023-01-30T10:54:28.967Z,14.80
2023-01-30T10:57:08.044Z,11.55
2023-01-30T11:00:02.375Z,9.68
2023-01-30T11:02:51.677Z,13.93
2023-01-30T11:05:21.080Z,16.77
2023-01-30T11:07:48.786Z,11.70
2023-01-30T11:10:19.293Z,17.60
2023-01-30T11:12:46.814Z,10.65
2023-01-30T11:15:13.578Z,15.95
2023-01-30T11:17:43.237Z,13.40
2023-01-30T11:20:17.020Z,16.20
2023-01-30T11:23:09.005Z,11.73
2023-01-30T11:25:59.291Z,16.20
2023-01-30T11:28:41.560Z,12.13
2023-01-30T11:31:28.239Z,12.25
2023-01-30T11:34:06.497Z,16.50
2023-01-30T11:36:35.410Z,14.70
2023-01-30T11:39:21.951Z,9.55
2023-01-30T11:41:57.731Z,10.13
2023-01-30T11:44:35.810Z,12.13
2023-01-30T11:47:13.548Z,9.02
2023-01-30T11:49:57.270Z,18.88
2023-01-30T11:52:35.081Z,10.15
2023-01-30T11:55:07.788Z,12.90
2023-01-30T11:57:43.058Z,15.27
2023-01-30T12:00:22.399Z,10.25
2023-01-30T12:02:51.183Z,14.55
2023-01-30T12:05:30.481Z,12.38
2023-01-30T12:08:14.925Z,11.00
2023-01-30T12:10:43.673Z,15.38
2023-01-30T12:13:38.851Z,16.65
2023-01-30T12:16:22.692Z,15.85
2023-01-30T12:19:16.309Z,12.75
2023-01-30T12:21:49.356Z,11.40
2023-01-30T12:24:25.898Z,12.75
2023-01-30T12:27:09.111Z,9.52
2023-01-30T12:29:43.487Z,20.00
2023-01-30T12:32:21.017Z,9.73
2023-01-30T12:34:48.446Z,16.48
2023-01-30T12:37:44.678Z,8.23
2023-01-30T12:40:30.517Z,19.85
2023-01-30T12:43:15.889Z,13.00
2023-01-30T12:46:36.784Z,11.18
2023-01-30T12:51:54.869Z,14.40
2023-01-30T12:54:24.284Z,14.57
2023-01-30T12:57:18.642Z,13.48
2023-01-30T13:00:09.463Z,13.27
2023-01-30T13:02:48.762Z,36.30
2023-01-30T13:05:29.977Z,16.80
2023-01-30T13:08:21.857Z,17.85
2023-01-30T13:10:56.762Z,12.82
2023-01-30T13:13:42.448Z,14.60
2023-01-30T13:16:37.609Z,13.98
2023-01-30T13:19:14.145Z,12.48
2023-01-30T13:21:55.695Z,12.25
2023-01-30T13:24:30.139Z,8.15
2023-01-30T13:27:00.235Z,11.15
2023-01-30T13:29:38.967Z,12.52
2023-01-30T13:32:22.148Z,16.42
2023-01-30T13:34:49.560Z,17.08
2023-01-30T13:37:19.083Z,11.50
2023-01-30T13:39:52.962Z,13.38
2023-01-30T13:42:25.536Z,16.15
2023-01-30T13:44:54.075Z,11.38
2023-01-30T13:47:44.999Z,11.63
2023-01-30T13:50:33.169Z,14.38
2023-01-30T13:53:13.197Z,13.55
2023-01-30T13:56:16.225Z,17.48
2023-01-30T13:59:03.025Z,16.08
2023-01-30T14:02:03.832Z,9.88
2023-01-30T14:04:30.392Z,12.77
2023-01-30T14:07:16.366Z,13.07
2023-01-30T14:10:08.810Z,10.68
2023-01-30T14:12:46.240Z,10.90
2023-01-30T14:15:12.666Z,10.38
2023-01-30T14:17:40.089Z,12.68
2023-01-30T14:20:20.043Z,14.52
2023-01-30T14:22:55.622Z,15.60
2023-01-30T14:25:25.429Z,14.88
2023-01-30T14:27:54.183Z,14.27
2023-01-30T14:30:50.607Z,13.45
2023-01-30T14:36:16.720Z,12.82
2023-01-30T14:38:45.463Z,10.10
2023-01-30T14:41:17.277Z,15.00
2023-01-30T15:28:39.234Z,15.25
2023-01-30T15:31:06.085Z,16.15
2023-01-30T15:33:32.909Z,16.23
2023-01-30T15:36:00.577Z,14.88
2023-01-30T15:38:28.760Z,12.73
2023-01-30T15:40:58.256Z,14.10
2023-01-30T15:43:52.437Z,19.17
2023-01-30T15:46:40.295Z,11.95
2023-01-30T15:49:31.155Z,13.07
2023-01-30T15:52:02.659Z,11.80
2023-01-30T15:54:29.478Z,12.88
2023-01-30T15:56:59.376Z,13.43
2023-01-30T15:59:28.857Z,13.38
2023-01-30T16:02:02.725Z,11.93
2023-01-30T16:04:30.282Z,9.20
2023-01-30T16:06:56.939Z,13.45
2023-01-30T16:09:25.518Z,18.08
2023-01-30T16:11:52.256Z,11.55
2023-01-30T16:14:20.981Z,14.25
2023-01-30T16:16:53.841Z,9.57
2023-01-30T16:19:29.220Z,16.30
2023-01-30T16:22:04.054Z,8.05
2023-01-30T16:24:33.145Z,13.05
2023-01-30T16:27:03.396Z,11.88
2023-01-30T16:29:33.470Z,14.35
2023-01-30T16:32:00.705Z,14.90
2023-01-30T16:34:31.806Z,15.65
2023-01-30T16:39:37.850Z,15.55
2023-01-30T16:42:23.112Z,12.25
2023-01-30T16:44:49.807Z,12.60
2023-01-30T16:47:24.202Z,9.50
2023-01-30T16:49:52.896Z,7.50
2023-01-30T16:52:38.196Z,11.57
2023-01-30T16:55:07.723Z,13.48
2023-01-30T16:57:43.226Z,12.32
2023-01-30T17:00:13.485Z,12.57
2023-01-30T17:02:41.764Z,12.82
2023-01-30T17:05:14.295Z,18.83
2023-01-30T17:07:40.777Z,13.13
2023-01-30T17:10:42.103Z,10.95
2023-01-30T17:13:32.458Z,11.77
2023-01-30T17:16:27.107Z,12.82
2023-01-30T17:18:56.246Z,12.68
2023-01-30T17:21:25.939Z,10.43
2023-01-30T17:23:56.479Z,16.30
2023-01-30T17:26:23.161Z,17.45
2023-01-30T17:28:49.728Z,17.67
2023-01-30T17:31:17.481Z,13.43
2023-01-30T17:33:44.060Z,11.82
2023-01-30T17:36:23.045Z,12.25
2023-01-30T17:38:50.582Z,21.83
2023-01-30T17:41:33.484Z,18.25
2023-01-30T17:44:00.114Z,14.80
2023-01-30T17:46:36.803Z,14.45
2023-01-30T17:49:03.713Z,16.60
2023-01-30T17:51:30.247Z,11.55
2023-01-30T17:53:56.772Z,12.80
2023-01-30T17:56:31.031Z,14.00
2023-01-30T17:58:58.647Z,13.77
2023-01-30T18:01:25.261Z,19.88
2023-01-30T18:03:51.855Z,15.65
2023-01-30T18:06:18.584Z,12.40
2023-01-30T18:08:47.954Z,16.38
2023-01-30T18:11:16.063Z,10.40
2023-01-30T18:13:42.914Z,10.88
2023-01-30T18:16:17.036Z,11.57
2023-01-30T18:18:43.619Z,13.10
2023-01-30T18:21:10.168Z,15.93
2023-01-30T18:23:37.315Z,18.00
2023-01-30T18:26:04.981Z,10.77
2023-01-30T18:28:31.530Z,17.63
2023-01-30T18:30:58.783Z,11.50
2023-01-30T18:33:25.511Z,11.10
2023-01-30T18:35:52.058Z,14.57
2023-01-30T18:38:18.561Z,10.18
2023-01-30T18:40:45.191Z,11.52
2023-01-30T18:43:11.958Z,18.35
2023-01-30T18:45:38.510Z,9.93
2023-01-30T18:48:05.458Z,13.43
2023-01-30T18:50:32.109Z,11.35
2023-01-30T18:52:58.670Z,15.48
2023-01-30T18:55:25.721Z,14.07
2023-01-30T18:57:52.685Z,11.73
2023-01-30T19:00:21.524Z,13.77
2023-01-30T19:02:54.531Z,12.05
2023-01-30T19:05:21.296Z,16.65
2023-01-30T19:07:50.299Z,19.40
2023-01-30T19:10:17.967Z,13.75
2023-01-30T19:13:03.799Z,10.23
2023-01-30T19:15:30.566Z,15.57
2023-01-30T19:17:58.234Z,15.73
2023-01-30T19:20:25.341Z,14.63
2023-01-30T19:22:54.817Z,11.02
2023-01-30T19:25:21.623Z,12.52
2023-01-30T19:27:48.160Z,12.00
2023-01-30T19:30:15.097Z,11.43
2023-01-30T19:32:41.676Z,11.45
2023-01-30T19:35:08.629Z,9.98
2023-01-30T19:37:35.990Z,14.70
2023-01-30T19:40:08.441Z,10.27
2023-01-30T19:42:40.225Z,12.52
2023-01-30T19:45:09.706Z,16.10
2023-01-30T19:47:36.320Z,12.90
2023-01-30T19:50:02.957Z,15.05
2023-01-30T19:52:29.751Z,12.23
2023-01-30T19:54:56.260Z,17.38
2023-01-30T19:57:23.033Z,15.98
2023-01-30T19:59:49.640Z,15.98
2023-01-30T20:02:16.368Z,20.38
2023-01-30T20:04:42.926Z,13.85
2023-01-30T20:07:09.561Z,15.73
2023-01-30T20:09:36.182Z,14.52
2023-01-30T20:12:03.030Z,18.05
2023-01-30T20:14:29.554Z,12.25
2023-01-30T20:16:56.016Z,13.70
2023-01-30T20:19:22.638Z,15.98
2023-01-30T20:21:49.413Z,17.25
2023-01-30T20:24:16.628Z,16.40
2023-01-30T20:26:46.388Z,12.98
2023-01-30T20:29:16.826Z,17.40
2023-01-30T20:31:43.789Z,13.63
2023-01-30T20:34:13.416Z,12.90
2023-01-30T20:36:40.295Z,14.75
2023-01-30T20:39:07.741Z,17.10
2023-01-30T20:41:36.629Z,17.60
2023-01-30T20:44:04.100Z,14.85
2023-01-30T20:46:35.017Z,19.55
2023-01-30T20:49:01.737Z,12.05
2023-01-30T20:51:31.520Z,9.95
2023-01-30T20:54:00.610Z,12.38
2023-01-30T20:56:34.075Z,14.88
2023-01-30T20:59:02.464Z,11.23
2023-01-30T21:01:29.423Z,19.40
2023-01-30T21:03:56.321Z,18.98
2023-01-30T21:06:41.681Z,21.00
2023-01-30T21:09:20.013Z,17.70
2023-01-30T21:11:47.639Z,14.13
2023-01-30T21:14:15.886Z,18.98
2023-01-30T21:16:42.760Z,19.90
2023-01-30T21:19:13.717Z,25.02
2023-01-30T21:21:50.433Z,18.60
2023-01-30T21:24:19.623Z,15.23
2023-01-30T21:26:47.697Z,13.23
2023-01-30T21:29:17.058Z,16.95
2023-01-30T21:31:45.008Z,12.18
2023-01-30T21:34:12.501Z,15.98
2023-01-30T21:36:39.390Z,14.20
2023-01-30T21:39:25.184Z,12.63
2023-01-30T21:42:10.321Z,11.15
2023-01-30T21:44:40.832Z,13.88
2023-01-30T21:47:08.117Z,13.30
2023-01-30T21:49:36.798Z,19.40
2023-01-30T21:52:03.691Z,15.65
2023-01-30T21:54:30.193Z,11.00
2023-01-30T21:56:56.997Z,13.40
2023-01-30T21:59:23.505Z,17.23
2023-01-30T22:01:50.375Z,14.15
2023-01-30T22:04:16.906Z,10.32
2023-01-30T22:06:44.471Z,12.52
2023-01-30T22:09:15.788Z,13.73
2023-01-30T22:11:46.181Z,22.30
2023-01-30T22:14:14.085Z,11.77
2023-01-30T22:16:41.519Z,12.50
2023-01-30T22:19:08.461Z,17.60
2023-01-30T22:21:37.874Z,15.32
2023-01-30T22:24:07.565Z,13.52
2023-01-30T22:26:34.413Z,13.32
2023-01-30T22:29:03.341Z,12.98
2023-01-30T22:31:34.685Z,11.85
2023-01-30T22:34:02.813Z,13.57
2023-01-30T22:36:31.361Z,13.73
2023-01-30T22:38:57.984Z,11.68
2023-01-30T22:41:27.124Z,8.48
2023-01-30T22:43:58.255Z,19.20
2023-01-30T22:48:57.479Z,24.00
2023-01-30T22:51:26.383Z,12.93
2023-01-30T22:53:55.876Z,11.07
2023-01-30T22:56:39.577Z,11.57
2023-01-30T22:59:07.344Z,13.55
2023-01-30T23:01:37.175Z,11.55
2023-01-30T23:04:25.913Z,14.95
2023-01-30T23:06:52.642Z,21.15
2023-01-30T23:09:21.896Z,13.73
2023-01-30T23:12:14.124Z,12.27
2023-01-30T23:14:42.994Z,10.65
2023-01-30T23:17:32.714Z,13.00
2023-01-30T23:19:59.338Z,18.00
2023-01-30T23:22:25.921Z,17.08
2023-01-30T23:24:52.686Z,14.50
2023-01-30T23:27:20.660Z,13.50
2023-01-30T23:29:47.349Z,12.23
2023-01-30T23:32:15.312Z,13.68
2023-01-30T23:34:42.106Z,12.55
2023-01-30T23:37:08.636Z,8.63
2023-01-30T23:39:35.491Z,14.20
2023-01-30T23:42:02.242Z,8.85
2023-01-30T23:44:28.684Z,12.88
2023-01-30T23:46:55.234Z,5.20
2023-01-30T23:49:21.832Z,6.95
2023-01-30T23:51:48.463Z,10.60
2023-01-30T23:54:15.028Z,9.07
2023-01-30T23:56:43.665Z,8.70
2023-01-30T23:59:11.301Z,11.35
